createdAt,value
2023-02-23T00:01:24.187Z,4.07
2023-02-23T00:04:29.638Z,4.63
2023-02-23T00:07:34.375Z,4.20
2023-02-23T00:10:38.691Z,4.40
2023-02-23T00:13:46.457Z,4.30
2023-02-23T00:16:50.225Z,3.90
2023-02-23T00:19:56.346Z,4.35
2023-02-23T00:23:00.170Z,4.07
2023-02-23T00:26:05.918Z,4.78
2023-02-23T00:29:17.519Z,4.65
2023-02-23T00:32:21.690Z,4.85
2023-02-23T00:35:27.070Z,4.10
2023-02-23T00:38:36.220Z,4.53
2023-02-23T00:41:41.768Z,4.68
2023-02-23T00:44:47.641Z,5.50
2023-02-23T00:47:52.223Z,5.05
2023-02-23T00:51:03.743Z,4.70
2023-02-23T00:54:13.588Z,5.38
2023-02-23T00:57:18.525Z,4.35
2023-02-23T01:00:22.640Z,4.45
2023-02-23T01:03:26.238Z,5.30
2023-02-23T01:06:32.450Z,4.63
2023-02-23T01:09:51.944Z,4.75
2023-02-23T01:12:56.395Z,4.97
2023-02-23T01:16:00.186Z,5.15
2023-02-23T01:19:06.357Z,4.97
2023-02-23T01:22:12.181Z,4.80
2023-02-23T01:25:16.633Z,5.20
2023-02-23T01:28:20.330Z,5.30
2023-02-23T01:31:27.100Z,5.35
2023-02-23T01:34:32.983Z,4.85
2023-02-23T01:37:40.656Z,5.03
2023-02-23T01:40:48.978Z,5.72
2023-02-23T01:43:59.367Z,5.28
2023-02-23T01:47:04.414Z,6.30
2023-02-23T01:50:12.212Z,4.45
2023-02-23T01:53:18.558Z,5.18
2023-02-23T01:56:28.926Z,5.63
2023-02-23T01:59:40.126Z,6.20
2023-02-23T02:02:43.807Z,6.25
2023-02-23T02:05:51.113Z,6.60
2023-02-23T02:09:06.663Z,6.32
2023-02-23T02:12:15.111Z,6.47
2023-02-23T02:15:18.798Z,6.70
2023-02-23T02:18:38.612Z,7.38
2023-02-23T02:22:38.635Z,6.00
2023-02-23T02:26:06.280Z,6.80
2023-02-23T02:29:47.555Z,6.43
2023-02-23T02:34:00.796Z,6.28
2023-02-23T02:37:48.946Z,7.47
2023-02-23T02:41:04.235Z,7.63
2023-02-23T02:44:19.198Z,7.53
2023-02-23T02:47:30.279Z,7.28
2023-02-23T02:50:50.403Z,7.65
2023-02-23T02:54:07.311Z,7.22
2023-02-23T02:57:15.176Z,7.18
2023-02-23T03:00:42.180Z,7.55
2023-02-23T03:04:06.865Z,7.47
2023-02-23T03:11:07.942Z,7.50
2023-02-23T03:14:47.385Z,7.95
2023-02-23T03:18:23.350Z,7.65
2023-02-23T03:21:52.857Z,7.55
2023-02-23T03:25:21.285Z,7.90
2023-02-23T03:28:52.077Z,6.50
2023-02-23T03:32:27.683Z,7.68
2023-02-23T03:35:59.088Z,8.30
2023-02-23T03:39:33.306Z,8.10
2023-02-23T03:42:58.692Z,7.73
2023-02-23T03:46:25.884Z,8.32
2023-02-23T03:49:53.453Z,8.90
2023-02-23T03:53:20.066Z,8.25
2023-02-23T03:56:46.117Z,8.43
2023-02-23T04:00:16.202Z,8.35
2023-02-23T04:03:41.063Z,8.50
2023-02-23T04:07:06.953Z,8.15
2023-02-23T04:10:30.907Z,9.07
2023-02-23T04:13:38.010Z,8.73
2023-02-23T04:16:42.907Z,8.60
2023-02-23T04:19:53.145Z,8.38
2023-02-23T04:22:57.358Z,8.57
2023-02-23T04:29:05.429Z,9.50
2023-02-23T04:35:16.930Z,7.70
2023-02-23T04:38:20.386Z,8.88
2023-02-23T04:41:24.175Z,9.23
2023-02-23T04:44:28.618Z,8.05
2023-02-23T04:47:32.720Z,8.50
2023-02-23T04:50:40.177Z,9.07
2023-02-23T04:53:44.505Z,9.07
2023-02-23T04:56:48.260Z,9.30
2023-02-23T04:59:52.391Z,9.10
2023-02-23T05:06:01.293Z,8.73
2023-02-23T05:09:10.875Z,8.98
2023-02-23T05:12:21.002Z,8.85
2023-02-23T05:15:25.638Z,9.52
2023-02-23T05:18:31.397Z,8.70
2023-02-23T05:21:36.542Z,10.15
2023-02-23T05:24:40.865Z,7.95
2023-02-23T05:27:45.053Z,9.95
2023-02-23T05:30:49.258Z,9.20
2023-02-23T05:33:53.194Z,9.43
2023-02-23T05:36:58.765Z,9.38
2023-02-23T05:40:02.520Z,9.48
2023-02-23T05:43:07.783Z,9.20
2023-02-23T05:46:16.047Z,9.50
2023-02-23T05:49:24.057Z,9.82
2023-02-23T05:52:29.983Z,10.00
2023-02-23T05:55:33.991Z,9.98
2023-02-23T06:01:42.137Z,10.05
2023-02-23T06:04:46.851Z,11.15
2023-02-23T06:07:58.214Z,10.65
2023-02-23T06:11:09.716Z,11.15
2023-02-23T06:14:22.057Z,9.70
2023-02-23T06:17:26.037Z,10.63
2023-02-23T06:23:38.376Z,11.07
2023-02-23T06:26:44.654Z,10.15
2023-02-23T06:29:48.924Z,10.80
2023-02-23T06:35:57.157Z,10.95
2023-02-23T06:39:02.245Z,9.38
2023-02-23T06:42:06.126Z,10.35
2023-02-23T06:45:14.244Z,9.98
2023-02-23T06:48:18.170Z,10.93
2023-02-23T06:51:21.947Z,10.65
2023-02-23T06:54:27.635Z,11.45
2023-02-23T06:57:31.356Z,11.20
2023-02-23T07:00:44.264Z,11.48
2023-02-23T07:03:48.932Z,10.63
2023-02-23T07:06:53.075Z,10.73
2023-02-23T07:09:58.417Z,10.68
2023-02-23T07:13:02.358Z,11.35
2023-02-23T07:16:08.687Z,10.63
2023-02-23T07:19:13.978Z,11.95
2023-02-23T07:22:19.823Z,12.05
2023-02-23T07:25:25.061Z,10.60
2023-02-23T07:28:29.593Z,11.73
2023-02-23T07:31:33.718Z,12.10
2023-02-23T07:34:38.199Z,10.90
2023-02-23T07:37:42.441Z,11.68
2023-02-23T07:40:47.899Z,11.23
2023-02-23T07:43:52.421Z,10.48
2023-02-23T07:46:56.832Z,11.32
2023-02-23T07:50:02.815Z,11.27
2023-02-23T07:53:15.794Z,11.35
2023-02-23T07:56:20.870Z,11.02
2023-02-23T07:59:24.737Z,11.88
2023-02-23T08:02:30.315Z,11.20
2023-02-23T08:05:40.289Z,11.60
2023-02-23T08:08:44.652Z,10.35
2023-02-23T08:14:53.852Z,11.18
2023-02-23T08:17:57.868Z,12.65
2023-02-23T08:21:03.011Z,11.57
2023-02-23T08:24:07.823Z,11.57
2023-02-23T08:27:30.903Z,11.13
2023-02-23T08:30:36.362Z,10.88
2023-02-23T08:33:49.386Z,11.23
2023-02-23T08:36:54.101Z,10.07
2023-02-23T08:39:59.242Z,10.75
2023-02-23T08:43:04.583Z,11.55
2023-02-23T08:46:09.195Z,11.70
2023-02-23T08:49:13.297Z,11.70
2023-02-23T08:52:17.754Z,11.55
2023-02-23T08:55:22.098Z,11.30
2023-02-23T08:58:28.673Z,11.55
2023-02-23T09:01:34.061Z,11.40
2023-02-23T09:04:38.317Z,11.23
2023-02-23T09:10:51.170Z,9.50
2023-02-23T09:13:56.721Z,10.73
2023-02-23T09:17:00.626Z,11.40
2023-02-23T09:20:06.362Z,11.48
2023-02-23T09:23:11.086Z,10.95
2023-02-23T09:26:16.552Z,12.23
2023-02-23T09:29:23.196Z,11.18
2023-02-23T09:32:27.354Z,11.60
2023-02-23T09:38:34.836Z,11.75
2023-02-23T09:41:59.846Z,12.60
2023-02-23T09:45:22.696Z,11.20
2023-02-23T09:48:32.366Z,12.32
2023-02-23T09:51:43.332Z,11.77
2023-02-23T09:54:47.970Z,12.23
2023-02-23T09:57:51.954Z,12.40
2023-02-23T10:01:55.540Z,11.52
2023-02-23T10:05:12.951Z,11.75
2023-02-23T10:08:44.385Z,11.88
2023-02-23T10:11:58.127Z,10.55
2023-02-23T10:15:19.645Z,11.13
2023-02-23T10:18:46.464Z,10.85
2023-02-23T10:21:56.930Z,12.75
2023-02-23T10:25:09.421Z,13.85
2023-02-23T10:28:17.959Z,11.88
2023-02-23T10:31:32.926Z,10.98
2023-02-23T10:34:38.701Z,11.88
2023-02-23T10:37:43.205Z,13.07
2023-02-23T10:40:51.858Z,12.10
2023-02-23T10:43:57.127Z,12.07
2023-02-23T10:47:11.251Z,11.63
2023-02-23T10:50:17.812Z,12.43
2023-02-23T10:53:27.775Z,11.77
2023-02-23T10:56:35.179Z,11.57
2023-02-23T11:00:02.327Z,12.55
2023-02-23T11:03:24.479Z,12.93
2023-02-23T11:06:39.723Z,13.02
2023-02-23T11:09:47.424Z,12.15
2023-02-23T11:12:51.753Z,12.70
2023-02-23T11:19:19.322Z,13.05
2023-02-23T11:22:27.168Z,11.95
2023-02-23T11:25:35.866Z,12.40
2023-02-23T11:28:46.704Z,13.38
2023-02-23T11:31:55.878Z,13.13
2023-02-23T11:35:36.635Z,12.88
2023-02-23T11:38:42.400Z,11.90
2023-02-23T11:41:53.568Z,12.45
2023-02-23T11:45:07.633Z,12.98
2023-02-23T11:48:24.305Z,12.98
2023-02-23T11:51:32.331Z,12.07
2023-02-23T11:54:39.150Z,13.65
2023-02-23T11:57:43.253Z,12.20
2023-02-23T12:04:00.907Z,13.70
2023-02-23T12:10:44.397Z,13.07
2023-02-23T12:13:58.112Z,12.07
2023-02-23T12:17:08.352Z,12.73
2023-02-23T12:20:19.923Z,12.27
2023-02-23T12:23:31.830Z,12.23
2023-02-23T12:26:49.474Z,13.43
2023-02-23T12:30:09.222Z,11.90
2023-02-23T12:33:20.963Z,12.90
2023-02-23T12:36:33.448Z,12.10
2023-02-23T12:39:43.317Z,12.52
2023-02-23T12:43:08.643Z,12.82
2023-02-23T12:46:22.184Z,13.13
2023-02-23T12:49:38.972Z,12.65
2023-02-23T12:52:53.887Z,11.73
2023-02-23T12:56:25.103Z,11.88
2023-02-23T13:00:20.610Z,10.18
2023-02-23T13:04:24.832Z,11.23
2023-02-23T13:07:42.186Z,9.85
2023-02-23T13:10:57.042Z,7.97
2023-02-23T13:14:14.444Z,9.25
2023-02-23T13:17:42.325Z,8.82
2023-02-23T13:20:53.302Z,9.23
2023-02-23T13:24:07.388Z,9.63
2023-02-23T13:27:24.178Z,9.13
2023-02-23T13:30:32.624Z,8.93
2023-02-23T13:33:48.708Z,9.38
2023-02-23T13:36:53.920Z,9.15
2023-02-23T13:40:17.522Z,9.48
2023-02-23T13:43:31.796Z,9.82
2023-02-23T13:46:50.439Z,10.27
2023-02-23T13:50:06.100Z,9.57
2023-02-23T13:53:39.672Z,9.63
2023-02-23T13:56:49.665Z,9.95
2023-02-23T13:59:54.261Z,11.65
2023-02-23T14:02:58.906Z,10.23
2023-02-23T14:06:07.989Z,10.55
2023-02-23T14:09:23.850Z,11.52
2023-02-23T14:12:37.292Z,11.05
2023-02-23T14:15:50.608Z,10.82
2023-02-23T14:19:12.923Z,11.57
2023-02-23T14:22:27.783Z,11.93
2023-02-23T14:25:51.270Z,12.35
2023-02-23T14:29:26.723Z,12.68
2023-02-23T14:32:32.598Z,14.77
2023-02-23T14:35:46.013Z,14.00
2023-02-23T14:39:01.166Z,14.02
2023-02-23T14:42:09.319Z,13.02
2023-02-23T14:45:26.939Z,14.30
2023-02-23T14:48:31.581Z,15.50
2023-02-23T14:51:43.067Z,13.63
2023-02-23T14:54:49.705Z,14.93
2023-02-23T14:57:54.704Z,14.75
2023-02-23T15:00:59.404Z,14.52
2023-02-23T15:04:12.948Z,15.13
2023-02-23T15:07:25.358Z,14.47
2023-02-23T15:10:37.374Z,15.27
2023-02-23T15:13:49.956Z,15.05
2023-02-23T15:16:54.572Z,15.77
2023-02-23T15:20:14.813Z,16.50
2023-02-23T15:23:21.992Z,17.00
2023-02-23T15:26:35.600Z,16.35
2023-02-23T15:29:39.700Z,17.17
2023-02-23T15:32:44.581Z,16.70
2023-02-23T15:35:56.766Z,18.02
2023-02-23T15:39:06.207Z,16.63
2023-02-23T15:42:16.574Z,17.83
2023-02-23T15:45:30.291Z,16.85
2023-02-23T15:48:47.125Z,17.03
2023-02-23T15:51:59.853Z,20.25
2023-02-23T15:55:10.661Z,19.27
2023-02-23T15:58:27.325Z,15.45
2023-02-23T16:01:32.986Z,16.40
2023-02-23T16:04:48.786Z,17.50
2023-02-23T16:08:06.604Z,17.63
2023-02-23T16:11:19.418Z,17.00
2023-02-23T16:14:34.178Z,16.60
2023-02-23T16:17:46.041Z,16.50
2023-02-23T16:20:56.285Z,15.10
2023-02-23T16:24:07.642Z,15.75
2023-02-23T16:27:23.522Z,15.57
2023-02-23T16:30:43.513Z,15.02
2023-02-23T16:33:57.232Z,13.93
2023-02-23T16:37:04.926Z,15.45
2023-02-23T16:40:17.668Z,14.60
2023-02-23T16:43:22.004Z,14.90
2023-02-23T16:46:33.079Z,15.20
2023-02-23T16:49:39.932Z,16.05
2023-02-23T16:52:46.529Z,16.80
2023-02-23T16:55:55.820Z,16.33
2023-02-23T16:59:04.394Z,16.08
2023-02-23T17:02:16.405Z,14.70
2023-02-23T17:05:23.808Z,13.75
2023-02-23T17:08:28.805Z,15.30
2023-02-23T17:11:33.132Z,16.23
2023-02-23T17:14:36.872Z,16.45
2023-02-23T17:17:43.843Z,15.77
2023-02-23T17:20:52.461Z,13.27
2023-02-23T17:24:03.245Z,15.00
2023-02-23T17:27:12.565Z,15.35
2023-02-23T17:30:24.572Z,15.00
2023-02-23T17:33:44.373Z,14.30
2023-02-23T17:37:00.958Z,16.17
2023-02-23T17:40:54.731Z,14.05
2023-02-23T17:44:54.015Z,13.38
2023-02-23T17:48:18.029Z,14.55
2023-02-23T17:51:55.062Z,14.15
2023-02-23T17:55:47.460Z,15.00
2023-02-23T17:59:36.489Z,15.38
2023-02-23T18:03:35.663Z,13.55
2023-02-23T18:06:53.454Z,11.70
2023-02-23T18:10:49.709Z,11.43
2023-02-23T18:14:26.650Z,12.05
2023-02-23T18:18:14.347Z,8.77
2023-02-23T18:21:55.816Z,6.20
2023-02-23T18:25:42.715Z,5.22
2023-02-23T18:29:03.033Z,35.50
2023-02-23T18:32:44.863Z,5.80
2023-02-23T18:35:59.597Z,4.97
2023-02-23T18:39:38.227Z,4.50
2023-02-23T18:42:45.610Z,10.18
2023-02-23T18:46:01.829Z,3.50
2023-02-23T18:50:15.549Z,3.00
2023-02-23T18:53:58.824Z,2.85
2023-02-23T18:57:27.835Z,2.10
2023-02-23T19:00:54.437Z,1.85
2023-02-23T19:04:15.444Z,1.92
2023-02-23T19:07:30.516Z,2.15
2023-02-23T19:11:04.355Z,2.20
2023-02-23T19:14:58.481Z,2.70
2023-02-23T19:18:18.602Z,2.22
2023-02-23T19:21:39.486Z,1.90
2023-02-23T19:25:02.278Z,1.52
2023-02-23T19:28:13.479Z,1.60
2023-02-23T19:31:57.296Z,1.65
2023-02-23T19:35:27.203Z,1.77
2023-02-23T19:38:52.953Z,1.23
2023-02-23T19:42:04.346Z,1.17
2023-02-23T19:45:20.400Z,1.38
2023-02-23T19:48:44.814Z,1.63
2023-02-23T19:52:02.537Z,1.48
2023-02-23T19:55:36.072Z,1.40
2023-02-23T19:58:47.934Z,1.85
2023-02-23T20:02:01.734Z,1.70
2023-02-23T20:05:13.858Z,1.45
2023-02-23T20:08:32.470Z,1.83
2023-02-23T20:11:46.977Z,1.80
2023-02-23T20:14:55.212Z,1.42
2023-02-23T20:18:08.931Z,1.70
2023-02-23T20:21:27.537Z,1.58
2023-02-23T20:24:39.163Z,1.55
2023-02-23T20:27:54.202Z,1.92
2023-02-23T20:31:08.446Z,1.60
2023-02-23T20:34:42.291Z,1.60
2023-02-23T20:38:07.158Z,2.22
2023-02-23T20:41:19.203Z,2.03
2023-02-23T20:44:35.324Z,1.75
2023-02-23T20:47:47.465Z,1.95
2023-02-23T20:51:12.146Z,1.88
2023-02-23T20:54:40.548Z,1.63
2023-02-23T20:57:48.558Z,2.05
2023-02-23T21:01:08.503Z,1.65
2023-02-23T21:04:22.990Z,2.00
2023-02-23T21:07:31.820Z,2.05
2023-02-23T21:10:50.293Z,1.92
2023-02-23T21:14:07.517Z,1.35
2023-02-23T21:17:12.414Z,1.95
2023-02-23T21:20:31.220Z,1.50
2023-02-23T21:23:51.552Z,1.77
2023-02-23T21:27:14.043Z,2.08
2023-02-23T21:30:34.851Z,1.73
2023-02-23T21:34:07.787Z,1.85
2023-02-23T21:37:16.692Z,1.88
2023-02-23T21:40:34.890Z,2.05
2023-02-23T21:43:46.411Z,1.88
2023-02-23T21:47:00.779Z,1.45
2023-02-23T21:50:16.412Z,1.70
2023-02-23T21:53:24.303Z,1.73
2023-02-23T21:56:32.727Z,1.98
2023-02-23T21:59:39.906Z,2.20
2023-02-23T22:02:59.561Z,1.90
2023-02-23T22:06:08.368Z,2.35
2023-02-23T22:09:33.637Z,1.70
2023-02-23T22:12:42.486Z,2.05
2023-02-23T22:15:55.093Z,1.70
2023-02-23T22:19:08.270Z,1.83
2023-02-23T22:22:21.548Z,2.10
2023-02-23T22:25:31.009Z,2.10
2023-02-23T22:28:38.186Z,1.73
2023-02-23T22:31:46.219Z,1.58
2023-02-23T22:34:57.800Z,2.30
2023-02-23T22:38:04.846Z,1.60
2023-02-23T22:41:12.256Z,1.80
2023-02-23T22:44:19.261Z,2.03
2023-02-23T22:47:24.155Z,2.30
2023-02-23T22:50:30.963Z,2.25
2023-02-23T22:53:35.109Z,2.40
2023-02-23T22:56:39.784Z,2.30
2023-02-23T22:59:55.570Z,1.70
2023-02-23T23:03:00.787Z,2.20
2023-02-23T23:06:13.148Z,2.05
2023-02-23T23:09:19.015Z,2.22
2023-02-23T23:12:41.025Z,2.40
2023-02-23T23:16:08.464Z,2.13
2023-02-23T23:19:31.685Z,1.40
2023-02-23T23:22:45.934Z,2.17
2023-02-23T23:25:59.035Z,1.80
2023-02-23T23:29:07.172Z,2.10
2023-02-23T23:32:28.571Z,2.53
2023-02-23T23:35:35.227Z,1.98
2023-02-23T23:38:42.417Z,2.22
2023-02-23T23:41:51.554Z,2.00
2023-02-23T23:45:01.745Z,1.88
2023-02-23T23:48:09.634Z,1.85
2023-02-23T23:51:13.711Z,1.67
2023-02-23T23:54:28.015Z,2.13
2023-02-23T23:57:36.330Z,2.05
